createdAt,value
2022-11-16T00:00:06.114Z,12
2022-11-16T00:02:05.414Z,12.1
2022-11-16T00:06:12.195Z,12
2022-11-16T00:08:13.963Z,12.1
2022-11-16T00:10:15.766Z,12
2022-11-16T00:18:22.861Z,12.1
2022-11-16T00:22:29.661Z,12.2
2022-11-16T00:26:33.239Z,12.1
2022-11-16T00:28:35.343Z,12.2
2022-11-16T00:30:36.945Z,12.2
2022-11-16T00:32:38.567Z,12.1
2022-11-16T00:34:43.609Z,12.1
2022-11-16T00:36:45.382Z,12.1
2022-11-16T00:38:47.177Z,12.1
2022-11-16T00:40:48.942Z,12.3
2022-11-16T00:42:50.746Z,12.1
2022-11-16T00:44:52.539Z,12.1
2022-11-16T00:46:54.291Z,12.2
2022-11-16T00:53:02.918Z,12.2
2022-11-16T00:55:31.552Z,12.3
2022-11-16T00:57:33.316Z,12.2
2022-11-16T01:03:41.916Z,12.2
2022-11-16T01:05:43.698Z,12.3
2022-11-16T01:07:45.492Z,12.1
2022-11-16T01:17:57.651Z,12.2
2022-11-16T01:19:59.424Z,12.1
2022-11-16T01:22:01.215Z,12.2
2022-11-16T01:24:02.977Z,12.3
2022-11-16T01:26:04.756Z,12.2
2022-11-16T01:28:06.552Z,12.2
2022-11-16T01:32:13.346Z,12.3
2022-11-16T01:34:15.141Z,12.1
2022-11-16T01:38:18.688Z,12.2
2022-11-16T01:40:20.461Z,12.2
2022-11-16T01:42:22.251Z,12.1
2022-11-16T01:44:27.301Z,12.2
2022-11-16T01:46:29.078Z,12.2
2022-11-16T01:48:31.009Z,12.2
2022-11-16T01:49:33.377Z,12.2
2022-11-16T01:51:35.181Z,12.3
2022-11-16T01:53:36.938Z,12.1
2022-11-16T01:55:38.739Z,12.2
2022-11-16T01:59:45.544Z,12.1
2022-11-16T02:01:47.347Z,12.2
2022-11-16T02:03:49.116Z,12.1
2022-11-16T02:05:50.935Z,12.3
2022-11-16T02:07:52.705Z,12.1
2022-11-16T02:09:54.493Z,12.1
2022-11-16T02:14:01.306Z,12.2
2022-11-16T02:16:03.108Z,12.2
2022-11-16T02:18:04.891Z,12.2
2022-11-16T02:20:06.661Z,12.3
2022-11-16T02:22:08.461Z,12.2
2022-11-16T02:24:10.248Z,12.2
2022-11-16T02:26:15.280Z,12.2
2022-11-16T02:28:17.046Z,12.3
2022-11-16T02:30:18.842Z,12.1
2022-11-16T02:34:22.442Z,12.2
2022-11-16T02:36:24.212Z,12.2
2022-11-16T02:38:25.975Z,12.2
2022-11-16T02:42:32.818Z,12.3
2022-11-16T02:44:34.600Z,12.1
2022-11-16T02:45:37.117Z,12.2
2022-11-16T02:47:38.879Z,12.2
2022-11-16T02:51:44.026Z,12.3
2022-11-16T02:55:50.790Z,12.2
2022-11-16T02:57:52.564Z,12.1
2022-11-16T02:59:54.363Z,12.2
2022-11-16T03:01:56.140Z,12.1
2022-11-16T03:03:57.925Z,12.2
2022-11-16T03:05:59.720Z,12.2
2022-11-16T03:08:04.758Z,12.1
2022-11-16T03:10:06.519Z,12.3
2022-11-16T03:12:08.311Z,12.2
2022-11-16T03:14:10.128Z,12.3
2022-11-16T03:16:11.952Z,12.2
2022-11-16T03:18:13.692Z,12.1
2022-11-16T03:20:15.476Z,12.1
2022-11-16T03:22:20.511Z,12.2
2022-11-16T03:24:22.278Z,12.1
2022-11-16T03:26:24.075Z,12.1
2022-11-16T03:28:25.863Z,12.2
2022-11-16T03:32:29.451Z,12.1
2022-11-16T03:34:31.228Z,12.1
2022-11-16T03:38:38.057Z,12.1
2022-11-16T03:40:39.979Z,12
2022-11-16T03:41:42.331Z,12
2022-11-16T03:43:44.090Z,12.2
2022-11-16T03:45:45.897Z,12.2
2022-11-16T03:47:47.686Z,12.1
2022-11-16T03:49:52.677Z,12.1
2022-11-16T03:51:54.453Z,12.1
2022-11-16T03:53:56.268Z,12.2
2022-11-16T03:55:58.041Z,12.1
2022-11-16T03:57:59.813Z,12.1
2022-11-16T04:00:01.596Z,12.1
2022-11-16T04:02:03.383Z,12.1
2022-11-16T04:04:08.385Z,12.2
2022-11-16T04:06:10.180Z,12
2022-11-16T04:08:11.970Z,12.1
2022-11-16T04:10:13.759Z,12.1
2022-11-16T04:12:15.520Z,12.1
2022-11-16T04:14:17.335Z,12.2
2022-11-16T04:16:19.116Z,12.1
2022-11-16T04:18:24.128Z,12.1
2022-11-16T04:20:25.892Z,12.1
2022-11-16T04:22:27.688Z,12
2022-11-16T04:24:29.514Z,12.1
2022-11-16T04:26:31.306Z,12.2
2022-11-16T04:28:33.494Z,12.1
2022-11-16T04:30:34.870Z,12.1
2022-11-16T04:32:39.882Z,12.2
2022-11-16T04:34:41.677Z,12.2
2022-11-16T04:36:43.471Z,12.2
2022-11-16T04:39:12.108Z,12.2
2022-11-16T04:41:13.888Z,12
2022-11-16T04:43:15.666Z,12.2
2022-11-16T04:45:20.709Z,12.2
2022-11-16T04:47:22.503Z,12.3
2022-11-16T04:49:24.268Z,12.1
2022-11-16T04:51:26.060Z,12.1
2022-11-16T04:53:27.844Z,12.1
2022-11-16T04:55:29.630Z,12.3
2022-11-16T04:57:31.416Z,12.2
2022-11-16T04:59:36.432Z,12.2
2022-11-16T05:01:38.238Z,12.1
2022-11-16T05:03:39.984Z,12.1
2022-11-16T05:05:41.769Z,12
2022-11-16T05:07:43.550Z,12
2022-11-16T05:09:45.333Z,12.1
2022-11-16T05:11:47.118Z,12
2022-11-16T05:13:52.154Z,11.9
2022-11-16T05:15:53.939Z,11.9
2022-11-16T05:17:55.742Z,11.8
2022-11-16T05:19:57.489Z,11.8
2022-11-16T05:21:59.279Z,11.8
2022-11-16T05:26:02.854Z,11.7
2022-11-16T05:28:07.885Z,11.8
2022-11-16T05:30:09.664Z,11.6
2022-11-16T05:32:11.430Z,11.7
2022-11-16T05:37:17.513Z,11.6
2022-11-16T05:39:19.283Z,11.6
2022-11-16T05:43:26.101Z,11.6
2022-11-16T05:45:27.882Z,11.6
2022-11-16T05:47:29.654Z,11.6
2022-11-16T05:49:31.440Z,11.6
2022-11-16T05:51:33.246Z,11.6
2022-11-16T05:53:35.013Z,11.5
2022-11-16T05:55:40.040Z,11.6
2022-11-16T05:57:41.820Z,11.5
2022-11-16T05:59:43.625Z,11.5
2022-11-16T06:01:45.389Z,11.6
2022-11-16T06:03:47.202Z,11.5
2022-11-16T06:05:48.947Z,11.4
2022-11-16T06:07:50.743Z,11.5
2022-11-16T06:09:55.779Z,11.4
2022-11-16T06:11:57.578Z,11.5
2022-11-16T06:13:59.340Z,11.5
2022-11-16T06:16:01.134Z,11.4
2022-11-16T06:18:02.921Z,11.4
2022-11-16T06:20:04.677Z,11.4
2022-11-16T06:22:06.436Z,11.4
2022-11-16T06:31:19.264Z,11.3
2022-11-16T06:33:21.053Z,11.3
2022-11-16T06:35:22.828Z,11.2
2022-11-16T06:37:27.867Z,11.1
2022-11-16T06:39:29.627Z,11.2
2022-11-16T06:41:31.412Z,11.2
2022-11-16T06:43:33.183Z,11.1
2022-11-16T06:45:34.952Z,11.3
2022-11-16T06:47:36.742Z,11.2
2022-11-16T06:49:39.730Z,11.3
2022-11-16T06:59:58.148Z,11.1
2022-11-16T07:02:15.700Z,11.1
2022-11-16T07:06:39.996Z,11
2022-11-16T07:08:39.112Z,11.2
2022-11-16T07:10:10.942Z,11.1
2022-11-16T07:12:06.077Z,11
2022-11-16T07:16:07.984Z,11
2022-11-16T07:18:09.761Z,11
2022-11-16T07:20:14.765Z,10.9
2022-11-16T07:22:16.516Z,10.9
2022-11-16T07:24:18.286Z,11
2022-11-16T07:25:20.799Z,11.1
2022-11-16T07:27:22.558Z,11
2022-11-16T07:29:24.325Z,11
2022-11-16T07:33:31.088Z,10.9
2022-11-16T07:45:41.634Z,11.1
2022-11-16T07:53:51.900Z,11.2
2022-11-16T07:55:53.674Z,11.2
2022-11-16T08:02:02.227Z,11.3
2022-11-16T08:06:05.697Z,13.1
2022-11-16T08:08:07.450Z,13.7
2022-11-16T08:10:09.283Z,14.7
2022-11-16T08:12:10.971Z,14.9
2022-11-16T08:14:12.743Z,15
2022-11-16T08:18:19.524Z,13.1
2022-11-16T08:20:21.306Z,13.4
2022-11-16T08:22:49.924Z,12.7
2022-11-16T08:24:51.740Z,12.4
2022-11-16T08:26:53.479Z,12.2
2022-11-16T08:28:58.506Z,11.9
2022-11-16T08:31:00.274Z,11.7
2022-11-16T08:33:02.054Z,11.6
2022-11-16T08:35:03.836Z,11.6
2022-11-16T08:37:05.597Z,11.6
2022-11-16T08:39:07.381Z,11.6
2022-11-16T08:41:09.150Z,11.6
2022-11-16T08:43:15.659Z,12.3
2022-11-16T08:49:21.000Z,12.9
2022-11-16T08:51:22.777Z,12.9
2022-11-16T08:53:24.551Z,12.5
2022-11-16T08:55:26.391Z,12.2
2022-11-16T08:57:31.359Z,12.1
2022-11-16T08:59:33.127Z,11.9
2022-11-16T09:01:35.006Z,12.1
2022-11-16T09:03:36.669Z,12.1
2022-11-16T09:05:38.439Z,11.9
2022-11-16T09:07:40.355Z,12.1
2022-11-16T09:09:42.027Z,12.7
2022-11-16T09:11:47.009Z,13.5
2022-11-16T09:13:48.789Z,14.4
2022-11-16T09:15:50.591Z,14.2
2022-11-16T09:16:53.107Z,14
2022-11-16T09:18:54.861Z,13.6
2022-11-16T09:20:56.654Z,13.1
2022-11-16T09:22:58.455Z,13.1
2022-11-16T09:25:03.478Z,13.1
2022-11-16T09:27:05.243Z,12.8
2022-11-16T09:29:07.037Z,12.6
2022-11-16T09:31:08.823Z,12.8
2022-11-16T09:33:10.599Z,12.6
2022-11-16T09:35:12.386Z,12.8
2022-11-16T09:37:14.174Z,12.8
2022-11-16T09:39:30.960Z,12.7
2022-11-16T09:41:20.975Z,12.7
2022-11-16T09:43:22.770Z,13.4
2022-11-16T09:45:24.553Z,13.6
2022-11-16T09:47:26.339Z,14.7
2022-11-16T09:49:28.135Z,14.3
2022-11-16T09:51:29.935Z,14.3
2022-11-16T09:53:35.325Z,14
2022-11-16T09:55:36.769Z,14.8
2022-11-16T09:59:40.325Z,15.8
2022-11-16T10:01:42.123Z,16.9
2022-11-16T10:03:43.927Z,16.1
2022-11-16T10:05:45.718Z,14.8
2022-11-16T10:07:50.745Z,14.8
2022-11-16T10:09:52.543Z,14.8
2022-11-16T10:11:54.429Z,15.7
2022-11-16T10:12:56.862Z,14.5
2022-11-16T10:17:00.461Z,16.1
2022-11-16T10:19:02.255Z,15.2
2022-11-16T10:21:07.290Z,14.5
2022-11-16T10:23:09.081Z,15
2022-11-16T10:25:10.900Z,15.6
2022-11-16T10:27:14.028Z,14.6
2022-11-16T10:29:14.487Z,13.9
2022-11-16T10:33:18.098Z,13.4
2022-11-16T10:35:23.146Z,14.1
2022-11-16T10:37:24.932Z,14.1
2022-11-16T10:39:26.731Z,14.1
2022-11-16T10:45:32.155Z,15.8
2022-11-16T10:51:40.814Z,18.4
2022-11-16T10:53:42.619Z,18
2022-11-16T10:55:44.438Z,18
2022-11-16T10:57:46.242Z,18
2022-11-16T10:59:48.049Z,17.2
2022-11-16T11:03:54.941Z,17.2
2022-11-16T11:05:56.727Z,16.3
2022-11-16T11:07:59.754Z,15
2022-11-16T11:09:01.068Z,15.9
2022-11-16T11:11:02.867Z,16.6
2022-11-16T11:13:04.701Z,17.9
2022-11-16T11:15:06.495Z,19.1
2022-11-16T11:17:11.562Z,18.3
2022-11-16T11:19:13.383Z,17.6
2022-11-16T11:21:15.183Z,17.3
2022-11-16T11:25:18.810Z,17.5
2022-11-16T11:27:20.637Z,15.9
2022-11-16T11:29:22.459Z,15.6
2022-11-16T11:31:27.518Z,19.1
2022-11-16T11:33:29.316Z,18.7
2022-11-16T11:35:31.156Z,18.5
2022-11-16T11:37:32.969Z,17.7
2022-11-16T11:39:34.980Z,16.9
2022-11-16T11:41:36.582Z,16.7
2022-11-16T11:45:43.487Z,14.5
2022-11-16T11:47:58.092Z,14.3
2022-11-16T11:49:47.083Z,14
2022-11-16T11:53:50.745Z,17.9
2022-11-16T11:55:52.559Z,19.8
2022-11-16T11:57:54.380Z,19.3
2022-11-16T11:59:59.414Z,18
2022-11-16T12:02:01.256Z,19.1
2022-11-16T12:04:03.042Z,19.4
2022-11-16T12:06:31.692Z,18.4
2022-11-16T12:08:33.487Z,18.2
2022-11-16T12:12:40.386Z,16.6
2022-11-16T12:14:42.184Z,17.9
2022-11-16T12:24:51.262Z,16.8
2022-11-16T12:28:58.141Z,17.5
2022-11-16T12:30:59.941Z,17.5
2022-11-16T12:33:01.779Z,19.7
2022-11-16T12:35:03.591Z,16.9
2022-11-16T12:37:05.405Z,15.7
2022-11-16T12:39:07.199Z,15.8
2022-11-16T12:41:12.367Z,17.7
2022-11-16T12:43:14.078Z,18.9
2022-11-16T12:45:15.883Z,17.1
2022-11-16T12:47:17.693Z,14.8
2022-11-16T12:49:19.523Z,13.9
2022-11-16T12:51:21.334Z,13.5
2022-11-16T12:53:23.157Z,13.3
2022-11-16T12:55:28.600Z,13.2
2022-11-16T12:57:30.024Z,13.3
2022-11-16T12:59:31.830Z,13.6
2022-11-16T13:00:34.370Z,13.4
2022-11-16T13:02:36.200Z,13.3
2022-11-16T13:04:37.990Z,13.3
2022-11-16T13:08:44.837Z,13.6
2022-11-16T13:14:50.265Z,13.5
2022-11-16T13:20:55.709Z,13.3
2022-11-16T13:23:00.777Z,13.3
2022-11-16T13:25:02.562Z,13.6
2022-11-16T13:27:04.379Z,14.1
2022-11-16T13:29:06.165Z,14.1
2022-11-16T13:31:07.986Z,13.9
2022-11-16T13:33:09.817Z,13.9
2022-11-16T13:35:11.592Z,13.8
2022-11-16T13:37:16.655Z,13.6
2022-11-16T13:39:22.270Z,13.8
2022-11-16T13:41:20.258Z,13.9
2022-11-16T13:43:22.064Z,13.9
2022-11-16T13:45:23.875Z,13.8
2022-11-16T13:47:25.670Z,13.5
2022-11-16T13:49:27.498Z,13.5
2022-11-16T13:51:32.547Z,13.9
2022-11-16T13:54:38.046Z,13.9
2022-11-16T13:55:36.160Z,13.8
2022-11-16T13:56:38.663Z,13.9
2022-11-16T13:58:40.492Z,13.8
2022-11-16T14:00:42.360Z,13.7
2022-11-16T14:02:44.114Z,13.6
2022-11-16T14:06:50.971Z,13.7
2022-11-16T14:08:52.745Z,13.9
2022-11-16T14:10:54.555Z,13.7
2022-11-16T14:12:56.348Z,13.8
2022-11-16T14:15:03.313Z,13.6
2022-11-16T14:19:05.009Z,13.3
2022-11-16T14:23:08.618Z,13.1
2022-11-16T14:25:10.416Z,13.1
2022-11-16T14:27:12.227Z,12.9
2022-11-16T14:33:22.423Z,12.9
2022-11-16T14:35:24.183Z,12.8
2022-11-16T14:41:29.553Z,12.7
2022-11-16T14:43:31.531Z,13
2022-11-16T14:45:33.148Z,13.1
2022-11-16T14:47:38.182Z,13.2
2022-11-16T14:49:39.976Z,13.1
2022-11-16T14:51:41.778Z,13.1
2022-11-16T14:52:44.289Z,13.1
2022-11-16T14:58:49.677Z,13
2022-11-16T15:00:54.741Z,12.9
2022-11-16T15:04:58.315Z,12.7
2022-11-16T15:07:00.188Z,12.7
2022-11-16T15:09:01.918Z,12.7
2022-11-16T15:11:03.713Z,12.7
2022-11-16T15:13:05.501Z,12.7
2022-11-16T15:15:10.529Z,12.8
2022-11-16T15:17:12.335Z,12.9
2022-11-16T15:19:14.376Z,12.8
2022-11-16T15:21:15.919Z,12.7
2022-11-16T15:23:17.713Z,12.6
2022-11-16T15:25:19.485Z,12.6
2022-11-16T15:27:21.302Z,12.6
2022-11-16T15:29:26.325Z,12.3
2022-11-16T15:31:28.138Z,12.4
2022-11-16T15:33:29.899Z,12.4
2022-11-16T15:35:31.702Z,12.3
2022-11-16T15:37:33.498Z,12.2
2022-11-16T15:44:01.512Z,12.2
2022-11-16T15:45:43.908Z,12.2
2022-11-16T15:54:17.895Z,12
2022-11-16T15:56:22.912Z,12
2022-11-16T15:58:24.699Z,11.9
2022-11-16T16:00:26.509Z,12
2022-11-16T16:02:28.276Z,11.8
2022-11-16T16:04:30.062Z,11.6
2022-11-16T16:06:31.850Z,11.7
2022-11-16T16:08:33.643Z,11.7
2022-11-16T16:10:38.788Z,11.6
2022-11-16T16:12:40.441Z,11.7
2022-11-16T16:14:42.219Z,11.7
2022-11-16T16:16:44.021Z,11.7
2022-11-16T16:18:45.790Z,11.6
2022-11-16T16:20:47.660Z,11.6
2022-11-16T16:22:49.365Z,11.6
2022-11-16T16:24:54.393Z,11.4
2022-11-16T16:28:57.967Z,11.3
2022-11-16T16:30:59.768Z,11.4
2022-11-16T16:33:02.285Z,11.2
2022-11-16T16:35:03.348Z,11.3
2022-11-16T16:37:05.100Z,11.2
2022-11-16T16:39:10.148Z,11.3
2022-11-16T16:41:11.942Z,11.1
2022-11-16T16:43:13.686Z,11.2
2022-11-16T16:46:18.021Z,11.1
2022-11-16T16:48:19.841Z,11.1
2022-11-16T16:50:21.576Z,11
2022-11-16T16:52:26.601Z,11.1
2022-11-16T16:54:28.390Z,11
2022-11-16T16:56:30.307Z,11
2022-11-16T16:58:31.924Z,10.9
2022-11-16T17:00:33.866Z,10.9
2022-11-16T17:02:35.496Z,11
2022-11-16T17:04:37.272Z,11
2022-11-16T17:06:46.328Z,10.7
2022-11-16T17:08:44.042Z,10.7
2022-11-16T17:10:45.828Z,10.8
2022-11-16T17:12:47.600Z,10.8
2022-11-16T17:14:49.373Z,10.8
2022-11-16T17:16:51.282Z,10.7
2022-11-16T17:20:57.942Z,10.6
2022-11-16T17:22:59.708Z,10.6
2022-11-16T17:25:01.481Z,10.7
2022-11-16T17:27:03.298Z,10.6
2022-11-16T17:29:05.023Z,10.5
2022-11-16T17:31:06.781Z,10.5
2022-11-16T17:33:08.557Z,10.5
2022-11-16T17:40:19.586Z,10.4
2022-11-16T17:42:21.361Z,10.4
2022-11-16T17:48:29.880Z,10.5
2022-11-16T17:50:31.638Z,10.5
2022-11-16T17:54:35.162Z,10.4
2022-11-16T17:56:36.939Z,10.5
2022-11-16T17:58:38.698Z,10.5
2022-11-16T18:00:40.449Z,10.4
2022-11-16T18:02:45.420Z,10.6
2022-11-16T18:06:49.050Z,10.5
2022-11-16T18:10:52.452Z,10.5
2022-11-16T18:12:54.225Z,10.6
2022-11-16T18:15:26.429Z,10.7
2022-11-16T18:17:01.001Z,10.6
2022-11-16T18:19:02.747Z,10.7
2022-11-16T18:21:04.507Z,10.6
2022-11-16T18:23:06.260Z,10.7
2022-11-16T18:25:08.014Z,10.6
2022-11-16T18:27:09.789Z,10.7
2022-11-16T18:33:18.282Z,10.4
2022-11-16T18:35:20.033Z,10.6
2022-11-16T18:38:24.308Z,10.5
2022-11-16T18:40:26.087Z,10.6
2022-11-16T18:42:27.828Z,10.5
2022-11-16T18:44:32.836Z,10.5
2022-11-16T18:46:34.608Z,10.5
2022-11-16T18:48:36.373Z,10.6
2022-11-16T18:50:38.129Z,10.4
2022-11-16T18:52:39.910Z,10.5
2022-11-16T18:54:41.649Z,10.5
2022-11-16T18:56:43.411Z,10.5
2022-11-16T18:58:51.247Z,10.6
2022-11-16T19:00:50.204Z,10.6
2022-11-16T19:02:51.923Z,10.5
2022-11-16T19:04:53.693Z,10.5
2022-11-16T19:06:55.502Z,10.7
2022-11-16T19:10:58.967Z,10.7
2022-11-16T19:13:03.943Z,10.6
2022-11-16T19:15:05.702Z,10.7
2022-11-16T19:17:07.474Z,10.7
2022-11-16T19:19:09.226Z,10.7
2022-11-16T19:21:11.004Z,10.8
2022-11-16T19:23:12.788Z,10.7
2022-11-16T19:25:14.555Z,10.8
2022-11-16T19:27:19.539Z,10.9
2022-11-16T19:29:21.319Z,10.8
2022-11-16T19:31:23.069Z,10.9
2022-11-16T19:52:10.893Z,11.1
2022-11-16T19:56:17.646Z,11.1
2022-11-16T20:02:22.962Z,11.2
2022-11-16T20:04:24.739Z,11.3
2022-11-16T20:06:26.542Z,11.1
2022-11-16T20:08:31.540Z,11.2
2022-11-16T20:12:35.072Z,11.2
2022-11-16T20:14:36.863Z,11.1
2022-11-16T20:16:39.454Z,11.2
2022-11-16T20:18:40.413Z,11.2
2022-11-16T20:20:42.189Z,11.2
2022-11-16T20:22:47.182Z,11.1
2022-11-16T20:24:50.508Z,11.2
2022-11-16T20:26:52.248Z,11.2
2022-11-16T20:27:54.755Z,11.2
2022-11-16T20:29:56.542Z,11.3
2022-11-16T20:31:58.315Z,11.1
2022-11-16T20:34:00.111Z,11.2
2022-11-16T20:36:05.096Z,11.2
2022-11-16T20:42:10.423Z,11.2
2022-11-16T20:44:16.305Z,11.2
2022-11-16T20:46:13.994Z,11.3
2022-11-16T20:48:15.775Z,11.2
2022-11-16T20:50:20.784Z,11.1
2022-11-16T20:52:22.543Z,11.3
2022-11-16T20:54:24.333Z,11.2
2022-11-16T20:56:26.141Z,11.2
2022-11-16T20:58:27.907Z,11.2
2022-11-16T21:00:29.648Z,11.2
2022-11-16T21:02:31.431Z,11.3
2022-11-16T21:04:36.460Z,11.2
2022-11-16T21:06:38.242Z,11.2
2022-11-16T21:08:40.032Z,11.1
2022-11-16T21:10:41.782Z,11.1
2022-11-16T21:12:43.563Z,11.1
2022-11-16T21:14:45.333Z,11
2022-11-16T21:16:47.108Z,11
2022-11-16T21:18:52.123Z,11
2022-11-16T21:20:53.898Z,11
2022-11-16T21:22:55.678Z,11
2022-11-16T21:23:58.162Z,11
2022-11-16T21:25:59.938Z,11
2022-11-16T21:28:01.709Z,11
2022-11-16T21:30:03.492Z,11
2022-11-16T21:32:08.514Z,10.9
2022-11-16T21:34:10.297Z,11
2022-11-16T21:36:12.055Z,10.9
2022-11-16T21:38:13.825Z,10.8
2022-11-16T21:40:15.608Z,11
2022-11-16T21:44:19.164Z,10.9
2022-11-16T21:48:25.935Z,11.1
2022-11-16T21:50:32.187Z,11
2022-11-16T21:52:29.486Z,11.1
2022-11-16T21:54:31.247Z,11.1
2022-11-16T21:56:33.020Z,11.1
2022-11-16T22:02:41.589Z,11.2
2022-11-16T22:04:43.346Z,11.2
2022-11-16T22:08:46.894Z,11.1
2022-11-16T22:10:48.692Z,11.2
2022-11-16T22:12:50.535Z,11.3
2022-11-16T22:14:55.465Z,11.2
2022-11-16T22:16:57.248Z,11.2
2022-11-16T22:20:01.556Z,11.3
2022-11-16T22:22:03.301Z,11.3
2022-11-16T22:24:05.092Z,11.3
2022-11-16T22:26:06.841Z,11.3
2022-11-16T22:28:20.563Z,11.5
2022-11-16T22:30:13.634Z,11.3
2022-11-16T22:32:15.431Z,11.3
2022-11-16T22:34:17.191Z,11.2
2022-11-16T22:36:18.973Z,11.3
2022-11-16T22:38:20.774Z,11.4
2022-11-16T22:40:22.544Z,11.3
2022-11-16T22:42:27.541Z,11.3
2022-11-16T22:44:29.301Z,11.3
2022-11-16T22:46:31.094Z,11.3
2022-11-16T22:48:32.867Z,11.4
2022-11-16T22:50:34.655Z,11.3
2022-11-16T22:52:36.430Z,11.4
2022-11-16T22:54:38.190Z,11.4
2022-11-16T22:56:43.205Z,11.4
2022-11-16T23:04:50.323Z,11.5
2022-11-16T23:06:52.179Z,11.4
2022-11-16T23:08:53.883Z,11.4
2022-11-16T23:10:58.877Z,11.3
2022-11-16T23:13:00.653Z,11.5
2022-11-16T23:15:02.445Z,11.3
2022-11-16T23:17:31.047Z,11.5
2022-11-16T23:19:32.829Z,11.4
2022-11-16T23:21:34.592Z,11.5
2022-11-16T23:23:39.612Z,11.4
2022-11-16T23:25:41.400Z,11.4
2022-11-16T23:27:43.173Z,11.5
2022-11-16T23:29:44.970Z,11.5
2022-11-16T23:31:46.743Z,11.6
2022-11-16T23:33:48.526Z,11.5
2022-11-16T23:35:50.310Z,11.4
2022-11-16T23:37:55.342Z,11.4
2022-11-16T23:39:57.123Z,11.4
2022-11-16T23:41:58.889Z,11.4
2022-11-16T23:44:00.694Z,11.4
2022-11-16T23:46:02.637Z,11.3
2022-11-16T23:48:04.247Z,11.4
2022-11-16T23:50:06.002Z,11.4
2022-11-16T23:52:11.047Z,11.4
2022-11-16T23:54:12.801Z,11.3
2022-11-16T23:56:14.585Z,11.2
2022-11-16T23:58:16.345Z,11.3
